Time;durP1;ratioP1;P1;durP2;ratioP2;P2;SDS_P1;SDS_P2;PMS_P1;PMS_P2;Temp;Humidity;BMP_temperature;BMP_pressure;BME280_temperature;BME280_humidity;BME280_pressure;Samples;Min_cycle;Max_cycle;Signal;HPM_P1;HPM_P2
2021/06/15 00:03:39;;;;;;;;;;;13.20;99.90;;;;;;8392784;28;19904;-64
2021/06/15 00:07:39;;;;;;;;;;;13.20;99.90;;;;;;8392654;28;20393;-64
2021/06/15 00:11:40;;;;;;;;;;;13.10;99.90;;;;;;8390275;28;20010;-64
2021/06/15 00:15:41;;;;;;;;;;;13.00;99.90;;;;;;8390975;28;20558;-65
2021/06/15 00:19:41;;;;;;;;;;;13.00;99.90;;;;;;8391173;28;20401;-65
2021/06/15 00:23:42;;;;;;;;;;;13.00;99.90;;;;;;8391751;28;19917;-64
2021/06/15 00:27:42;;;;;;;;;;;13.10;99.90;;;;;;8391854;28;19904;-64
2021/06/15 00:31:43;;;;;;;;;;;13.00;99.90;;;;;;8391754;28;19938;-65
2021/06/15 00:35:43;;;;;;;;;;;12.90;99.90;;;;;;8391681;28;20374;-65
2021/06/15 00:39:44;;;;;;;;;;;12.60;99.90;;;;;;8391518;28;20173;-65
2021/06/15 00:43:44;;;;;;;;;;;12.30;99.90;;;;;;8391672;28;20319;-64
2021/06/15 00:47:46;;;;;;;;;;;12.10;99.90;;;;;;8391494;28;19921;-64
2021/06/15 00:51:47;;;;;;;;;;;12.50;99.90;;;;;;8391114;28;19911;-64
2021/06/15 00:55:49;;;;;;;;;;;12.30;99.90;;;;;;8393836;28;20017;-64
2021/06/15 00:59:49;;;;;;;;;;;12.40;99.90;;;;;;8397545;28;19943;-64
2021/06/15 01:03:50;;;;;;;;;;;12.30;99.90;;;;;;8397161;28;19911;-64
2021/06/15 01:07:57;;;;;;;;;;;12.20;99.90;;;;;;8397312;28;19938;-64
2021/06/15 01:11:57;;;;;;;;;;;12.10;99.90;;;;;;8397511;28;20401;-65
2021/06/15 01:15:58;;;;;;;;;;;12.00;99.90;;;;;;8395613;28;20004;-64
2021/06/15 01:20:06;;;;;;;;;;;12.30;99.90;;;;;;8396924;28;19915;-64
2021/06/15 01:24:19;;;;;;;;;;;12.10;99.90;;;;;;8396742;28;20592;-65
2021/06/15 01:28:26;;;;;;;;;;;11.80;99.90;;;;;;8396737;28;19904;-65
2021/06/15 01:32:28;;;;;;;;;;;11.70;99.90;;;;;;8396791;28;19911;-64
2021/06/15 01:36:32;;;;;;;;;;;11.90;99.90;;;;;;8394914;28;20278;-65
2021/06/15 01:40:36;;;;;;;;;;;12.00;99.90;;;;;;8395322;28;19947;-65
2021/06/15 01:44:38;;;;;;;;;;;11.70;99.90;;;;;;8396157;28;19994;-65
2021/06/15 01:48:47;;;;;;;;;;;11.70;99.90;;;;;;8411577;28;19904;-65
2021/06/15 01:52:49;;;;;;;;;;;11.80;99.90;;;;;;8395935;28;19904;-64
2021/06/15 01:56:51;;;;;;;;;;;11.80;99.90;;;;;;8394517;28;20517;-65
2021/06/15 02:00:52;;;;;;;;;;;11.60;99.90;;;;;;8395864;28;19938;-64
2021/06/15 02:04:54;;;;;;;;;;;11.40;99.90;;;;;;8395697;28;19943;-64
2021/06/15 02:08:55;;;;;;;;;;;11.30;99.90;;;;;;8394882;28;19942;-64
2021/06/15 02:12:56;;;;;;;;;;;11.00;99.90;;;;;;8395630;28;19905;-65
2021/06/15 02:16:58;;;;;;;;;;;10.90;99.90;;;;;;8395252;28;19916;-64
2021/06/15 02:21:00;;;;;;;;;;;10.80;99.90;;;;;;8395492;28;20462;-65
2021/06/15 02:25:01;;;;;;;;;;;10.60;99.90;;;;;;8395033;28;20374;-65
2021/06/15 02:29:02;;;;;;;;;;;10.90;99.90;;;;;;8394850;28;19908;-65
2021/06/15 02:33:08;;;;;;;;;;;10.70;99.90;;;;;;8394959;28;19938;-65
2021/06/15 02:37:10;;;;;;;;;;;10.60;99.90;;;;;;8394835;28;20044;-65
2021/06/15 02:41:12;;;;;;;;;;;10.80;99.90;;;;;;8395030;28;19904;-65
2021/06/15 02:45:14;;;;;;;;;;;10.70;99.90;;;;;;8410458;28;20388;-64
2021/06/15 02:49:16;;;;;;;;;;;10.60;99.90;;;;;;8408870;28;19952;-65
2021/06/15 02:53:24;;;;;;;;;;;10.50;99.90;;;;;;8393851;28;19990;-65
2021/06/15 02:57:28;;;;;;;;;;;10.80;99.90;;;;;;8394349;28;19916;-64
2021/06/15 03:01:28;;;;;;;;;;;10.90;99.90;;;;;;8394154;28;19944;-65
2021/06/15 03:05:29;;;;;;;;;;;10.80;99.90;;;;;;8368616;28;20033;-65
2021/06/15 03:09:29;;;;;;;;;;;10.60;99.90;;;;;;8361968;28;20682;-64
2021/06/15 03:13:47;;;;;;;;;;;10.80;99.90;;;;;;8360699;28;19993;-64
2021/06/15 03:18:06;;;;;;;;;;;10.70;99.90;;;;;;8359612;28;20355;-64
2021/06/15 03:22:12;;;;;;;;;;;10.70;99.90;;;;;;8378920;28;19908;-64
2021/06/15 03:26:30;;;;;;;;;;;10.50;99.90;;;;;;8391530;28;19926;-64
2021/06/15 03:30:31;;;;;;;;;;;10.50;99.90;;;;;;8393211;28;19938;-64
2021/06/15 03:34:33;;;;;;;;;;;10.80;99.90;;;;;;8392174;28;20039;-64
2021/06/15 03:38:35;;;;;;;;;;;10.80;99.90;;;;;;8392040;28;19953;-64
2021/06/15 03:42:38;;;;;;;;;;;10.80;99.90;;;;;;8383287;28;19913;-65
2021/06/15 03:46:40;;;;;;;;;;;10.80;99.90;;;;;;8370931;28;19930;-65
2021/06/15 03:50:41;;;;;;;;;;;10.90;99.90;;;;;;8386124;28;19962;-65
2021/06/15 03:54:43;;;;;;;;;;;10.90;99.90;;;;;;8369638;28;19909;-64
2021/06/15 03:58:44;;;;;;;;;;;11.10;99.90;;;;;;8363656;28;20003;-65
2021/06/15 04:02:46;;;;;;;;;;;11.40;99.90;;;;;;8387785;28;20442;-65
2021/06/15 04:06:51;;;;;;;;;;;11.50;99.90;;;;;;8357459;28;20322;-65
2021/06/15 04:10:53;;;;;;;;;;;11.60;99.90;;;;;;8358617;28;19958;-65
2021/06/15 04:14:54;;;;;;;;;;;11.70;99.90;;;;;;8357647;28;19909;-65
2021/06/15 04:18:56;;;;;;;;;;;11.80;99.90;;;;;;8358529;28;19913;-65
2021/06/15 04:23:01;;;;;;;;;;;12.20;99.90;;;;;;8365532;28;19961;-65
2021/06/15 04:27:01;;;;;;;;;;;12.30;99.90;;;;;;8392284;28;19915;-65
2021/06/15 04:31:02;;;;;;;;;;;12.40;99.90;;;;;;8396223;28;20038;-65
2021/06/15 04:35:05;;;;;;;;;;;12.60;99.90;;;;;;8374916;28;19966;-64
2021/06/15 04:39:13;;;;;;;;;;;12.60;99.90;;;;;;8362689;28;19912;-65
2021/06/15 04:43:16;;;;;;;;;;;12.80;99.90;;;;;;8374956;28;19942;-63
2021/06/15 04:47:30;;;;;;;;;;;13.10;99.90;;;;;;8366577;28;19915;-68
2021/06/15 04:51:31;;;;;;;;;;;13.40;99.90;;;;;;8372002;28;19951;-68
2021/06/15 04:55:34;;;;;;;;;;;13.60;99.90;;;;;;8388164;28;19924;-68
2021/06/15 04:59:36;;;;;;;;;;;13.80;99.90;;;;;;8383518;28;20015;-68
2021/06/15 05:03:37;;;;;;;;;;;14.10;99.90;;;;;;8388773;28;19953;-68
2021/06/15 05:07:39;;;;;;;;;;;14.30;99.90;;;;;;8371800;28;20029;-69
2021/06/15 05:11:40;;;;;;;;;;;14.50;99.90;;;;;;8382737;28;20290;-69
2021/06/15 05:15:43;;;;;;;;;;;14.50;99.90;;;;;;8367690;28;19916;-70
2021/06/15 05:19:44;;;;;;;;;;;14.80;99.90;;;;;;8375573;28;20496;-69
2021/06/15 05:23:52;;;;;;;;;;;15.10;99.90;;;;;;8391866;22;20023;-66
2021/06/15 05:27:53;;;;;;;;;;;15.50;99.90;;;;;;8329462;28;20379;-68
2021/06/15 05:31:54;;;;;;;;;;;15.70;99.90;;;;;;8330368;28;19919;-68
2021/06/15 05:35:54;;;;;;;;;;;16.00;99.90;;;;;;8328236;28;19935;-68
2021/06/15 05:39:58;;;;;;;;;;;16.20;99.90;;;;;;8326941;28;20344;-67
2021/06/15 05:43:58;;;;;;;;;;;16.50;99.90;;;;;;8328150;28;19951;-69
2021/06/15 05:47:59;;;;;;;;;;;17.00;99.90;;;;;;8330330;28;19905;-67
2021/06/15 05:52:02;;;;;;;;;;;17.20;99.90;;;;;;8330491;28;19948;-67
2021/06/15 05:56:03;;;;;;;;;;;17.50;99.90;;;;;;8326227;28;19939;-66
2021/06/15 06:00:04;;;;;;;;;;;17.80;99.90;;;;;;8327600;28;19908;-68
2021/06/15 06:04:07;;;;;;;;;;;17.90;99.90;;;;;;8321310;28;20572;-68
2021/06/15 06:08:08;;;;;;;;;;;18.10;99.90;;;;;;8325987;28;19931;-67
2021/06/15 06:12:09;;;;;;;;;;;18.30;99.90;;;;;;8327671;28;20083;-67
2021/06/15 06:16:12;;;;;;;;;;;18.60;99.90;;;;;;8327350;28;19909;-68
2021/06/15 06:20:14;;;;;;;;;;;18.80;99.90;;;;;;8328741;28;19962;-68
2021/06/15 06:24:17;;;;;;;;;;;18.90;99.90;;;;;;8327880;28;20350;-68
2021/06/15 06:28:17;;;;;;;;;;;19.30;99.90;;;;;;8328844;28;20574;-67
2021/06/15 06:32:18;;;;;;;;;;;19.50;99.90;;;;;;8326606;28;19909;-68
2021/06/15 06:36:18;;;;;;;;;;;19.80;99.90;;;;;;8328307;28;19992;-68
2021/06/15 06:40:19;;;;;;;;;;;20.00;99.90;;;;;;8326355;28;19943;-68
2021/06/15 06:44:19;;;;;;;;;;;20.30;99.90;;;;;;8327723;28;19947;-67
2021/06/15 06:48:20;;;;;;;;;;;20.50;99.90;;;;;;8328334;28;19905;-69
2021/06/15 06:52:20;;;;;;;;;;;20.60;99.90;;;;;;8328033;28;19955;-67
2021/06/15 06:56:21;;;;;;;;;;;20.70;99.90;;;;;;8328034;28;19940;-68
2021/06/15 07:00:22;;;;;;;;;;;21.00;99.90;;;;;;8327973;28;20134;-68
2021/06/15 07:04:22;;;;;;;;;;;21.10;99.90;;;;;;8322357;28;19935;-69
2021/06/15 07:08:24;;;;;;;;;;;21.40;99.90;;;;;;8327474;28;20417;-67
2021/06/15 07:12:25;;;;;;;;;;;21.60;99.90;;;;;;8326933;28;19920;-66
2021/06/15 07:16:25;;;;;;;;;;;21.80;99.90;;;;;;8325839;28;19953;-66
2021/06/15 07:20:26;;;;;;;;;;;22.10;99.90;;;;;;8323091;28;19923;-67
2021/06/15 07:24:26;;;;;;;;;;;22.40;99.90;;;;;;8326669;28;19917;-67
2021/06/15 07:28:27;;;;;;;;;;;22.60;99.90;;;;;;8326650;28;19919;-67
2021/06/15 07:32:27;;;;;;;;;;;22.90;99.90;;;;;;8326852;28;19959;-67
2021/06/15 07:36:28;;;;;;;;;;;23.10;99.90;;;;;;8324383;28;19947;-67
2021/06/15 07:40:29;;;;;;;;;;;23.30;99.90;;;;;;8324416;28;19919;-68
2021/06/15 07:44:29;;;;;;;;;;;23.40;99.90;;;;;;8325468;28;19999;-69
2021/06/15 07:48:30;;;;;;;;;;;23.40;99.90;;;;;;8326418;28;19912;-68
2021/06/15 07:52:31;;;;;;;;;;;23.50;99.90;;;;;;8324074;28;20355;-68
2021/06/15 07:56:31;;;;;;;;;;;23.40;99.90;;;;;;8325712;28;19913;-67
2021/06/15 08:00:32;;;;;;;;;;;23.60;99.90;;;;;;8326260;28;19909;-67
2021/06/15 08:04:32;;;;;;;;;;;23.70;99.90;;;;;;8307576;28;19951;-68
2021/06/15 08:08:33;;;;;;;;;;;23.90;99.90;;;;;;8293280;28;19905;-68
2021/06/15 08:12:34;;;;;;;;;;;24.20;99.90;;;;;;8306905;28;19909;-66
2021/06/15 08:16:34;;;;;;;;;;;24.40;99.90;;;;;;8321234;28;19940;-68
2021/06/15 08:20:35;;;;;;;;;;;24.60;99.90;;;;;;8322838;28;20420;-68
2021/06/15 08:24:35;;;;;;;;;;;24.60;99.90;;;;;;8322691;28;19951;-68
2021/06/15 08:28:36;;;;;;;;;;;24.60;99.90;;;;;;8324095;28;19959;-69
2021/06/15 08:32:36;;;;;;;;;;;24.70;99.90;;;;;;8325182;28;20468;-69
2021/06/15 08:36:37;;;;;;;;;;;24.90;99.90;;;;;;8325228;28;20416;-68
2021/06/15 08:40:38;;;;;;;;;;;25.20;99.90;;;;;;8325375;28;19997;-69
2021/06/15 08:44:38;;;;;;;;;;;25.30;99.90;;;;;;8323192;28;20362;-68
2021/06/15 08:48:39;;;;;;;;;;;25.20;95.60;;;;;;8324520;28;19920;-68
2021/06/15 08:52:40;;;;;;;;;;;25.20;93.60;;;;;;8324428;28;19909;-69
2021/06/15 08:56:42;;;;;;;;;;;25.60;94.50;;;;;;8323780;28;19949;-68
2021/06/15 09:00:43;;;;;;;;;;;25.50;90.70;;;;;;8321678;28;19909;-67
2021/06/15 09:04:45;;;;;;;;;;;25.60;92.40;;;;;;8326397;28;19959;-68
2021/06/15 09:08:52;;;;;;;;;;;25.70;92.20;;;;;;8331061;28;19909;-67
2021/06/15 09:12:52;;;;;;;;;;;25.90;91.60;;;;;;8328240;28;19909;-68
2021/06/15 09:16:52;;;;;;;;;;;25.90;88.50;;;;;;8326730;28;19971;-69
2021/06/15 09:20:53;;;;;;;;;;;25.90;79.30;;;;;;8331047;28;19912;-67
2021/06/15 09:24:54;;;;;;;;;;;26.00;85.30;;;;;;8330082;28;19913;-69
2021/06/15 09:28:55;;;;;;;;;;;26.10;90.00;;;;;;8327120;28;19967;-70
2021/06/15 09:32:56;;;;;;;;;;;26.30;89.40;;;;;;8330506;28;19905;-68
2021/06/15 09:36:57;;;;;;;;;;;26.40;88.20;;;;;;8327262;28;20321;-69
2021/06/15 09:40:57;;;;;;;;;;;26.60;83.30;;;;;;8327777;28;19915;-67
2021/06/15 09:45:02;;;;;;;;;;;26.70;74.50;;;;;;8329761;28;19916;-67
2021/06/15 09:49:02;;;;;;;;;;;26.50;80.40;;;;;;8328898;28;20386;-67
2021/06/15 09:53:20;;;;;;;;;;;26.40;77.80;;;;;;8330009;28;19905;-66
2021/06/15 09:57:25;;;;;;;;;;;26.50;75.20;;;;;;8329501;28;19909;-69
2021/06/15 10:01:39;;;;;;;;;;;26.70;80.50;;;;;;8329422;28;19905;-67
2021/06/15 10:05:40;;;;;;;;;;;26.90;80.40;;;;;;8329285;28;19905;-68
2021/06/15 10:09:41;;;;;;;;;;;27.10;81.20;;;;;;8329158;28;20418;-68
2021/06/15 10:13:41;;;;;;;;;;;27.30;81.40;;;;;;8329398;28;20374;-68
2021/06/15 10:17:42;;;;;;;;;;;27.10;79.80;;;;;;8328693;28;19913;-68
2021/06/15 10:21:43;;;;;;;;;;;27.20;79.40;;;;;;8329100;28;19935;-68
2021/06/15 10:25:44;;;;;;;;;;;27.30;67.60;;;;;;8326755;28;19994;-67
2021/06/15 10:29:48;;;;;;;;;;;27.20;74.60;;;;;;8326093;28;20386;-68
2021/06/15 10:33:49;;;;;;;;;;;27.40;77.40;;;;;;8328200;28;19915;-67
2021/06/15 10:37:50;;;;;;;;;;;27.60;76.80;;;;;;8330521;28;19921;-69
2021/06/15 10:42:08;;;;;;;;;;;28.00;66.90;;;;;;8326908;28;20542;-68
2021/06/15 10:46:11;;;;;;;;;;;28.00;67.40;;;;;;8327309;28;20487;-67
2021/06/15 10:50:12;;;;;;;;;;;28.00;69.30;;;;;;8327032;28;19916;-67
2021/06/15 10:54:30;;;;;;;;;;;28.40;74.00;;;;;;8324420;28;19909;-67
2021/06/15 10:58:30;;;;;;;;;;;28.80;69.80;;;;;;8321444;28;19935;-68
2021/06/15 11:02:32;;;;;;;;;;;29.00;58.10;;;;;;8326937;28;19939;-67
2021/06/15 11:06:32;;;;;;;;;;;28.90;67.00;;;;;;8325399;28;19967;-67
2021/06/15 11:10:43;;;;;;;;;;;29.10;66.20;;;;;;8325691;28;20379;-67
2021/06/15 11:15:02;;;;;;;;;;;28.50;59.80;;;;;;8324494;28;19909;-67
2021/06/15 11:19:12;;;;;;;;;;;28.50;66.10;;;;;;8326705;28;20277;-66
2021/06/15 11:23:17;;;;;;;;;;;29.40;69.60;;;;;;8364946;22;20390;-69
2021/06/15 11:27:23;;;;;;;;;;;30.20;65.00;;;;;;8414841;28;20045;-69
2021/06/15 11:31:24;;;;;;;;;;;30.60;59.50;;;;;;8406686;28;20366;-69
2021/06/15 11:35:28;;;;;;;;;;;30.90;61.80;;;;;;8431424;28;19912;-69
2021/06/15 11:39:31;;;;;;;;;;;31.60;58.80;;;;;;8412956;28;19965;-69
2021/06/15 11:43:33;;;;;;;;;;;33.40;55.40;;;;;;8419148;28;19946;-69
2021/06/15 11:47:35;;;;;;;;;;;35.70;54.10;;;;;;8408006;28;19904;-69
2021/06/15 11:51:35;;;;;;;;;;;38.00;46.30;;;;;;8407382;28;19920;-69
2021/06/15 11:55:37;;;;;;;;;;;38.10;40.90;;;;;;8428231;28;20396;-69
2021/06/15 11:59:41;;;;;;;;;;;37.50;44.50;;;;;;8426989;28;21849;-69
2021/06/15 12:03:45;;;;;;;;;;;36.30;43.60;;;;;;8429141;28;20357;-69
2021/06/15 12:07:52;;;;;;;;;;;35.90;43.20;;;;;;8458440;28;19912;-68
2021/06/15 12:11:59;;;;;;;;;;;32.80;50.10;;;;;;8433883;28;20372;-67
2021/06/15 12:16:04;;;;;;;;;;;30.90;54.00;;;;;;8440115;28;19912;-69
2021/06/15 12:20:19;;;;;;;;;;;31.10;51.00;;;;;;8457418;28;20013;-69
2021/06/15 12:24:20;;;;;;;;;;;30.40;50.00;;;;;;8431907;28;19970;-69
2021/06/15 12:28:22;;;;;;;;;;;29.50;52.40;;;;;;8434888;28;20374;-68
2021/06/15 12:32:22;;;;;;;;;;;30.50;50.40;;;;;;8438285;28;19916;-69
2021/06/15 12:36:24;;;;;;;;;;;31.70;52.20;;;;;;8435733;28;19935;-68
2021/06/15 12:40:25;;;;;;;;;;;33.50;50.80;;;;;;8425254;28;19912;-68
2021/06/15 12:44:26;;;;;;;;;;;34.00;44.90;;;;;;8429478;28;20026;-68
2021/06/15 12:48:27;;;;;;;;;;;35.10;41.20;;;;;;8424643;28;20437;-68
2021/06/15 12:52:34;;;;;;;;;;;38.40;35.60;;;;;;8426262;28;19924;-71
2021/06/15 12:56:34;;;;;;;;;;;39.80;35.00;;;;;;8456454;28;19938;-71
2021/06/15 13:00:42;;;;;;;;;;;42.20;35.60;;;;;;8430419;28;19983;-71
2021/06/15 13:04:55;;;;;;;;;;;44.50;32.70;;;;;;8426695;28;19916;-70
2021/06/15 13:08:56;;;;;;;;;;;46.30;30.00;;;;;;8442697;28;19918;-69
2021/06/15 13:12:58;;;;;;;;;;;46.70;29.10;;;;;;8458649;28;19913;-71
2021/06/15 13:16:59;;;;;;;;;;;47.40;27.00;;;;;;8429193;28;19912;-69
2021/06/15 13:21:00;;;;;;;;;;;49.30;25.80;;;;;;8429153;28;19983;-69
2021/06/15 13:25:00;;;;;;;;;;;41.60;29.50;;;;;;8403029;28;19921;-69
2021/06/15 13:29:01;;;;;;;;;;;38.90;29.50;;;;;;8396972;28;19909;-69
2021/06/15 13:33:12;;;;;;;;;;;42.30;32.50;;;;;;8419157;28;19916;-69
2021/06/15 13:37:12;;;;;;;;;;;45.10;27.60;;;;;;8433687;28;20015;-69
2021/06/15 13:41:14;;;;;;;;;;;45.40;27.40;;;;;;8437074;28;19927;-70
2021/06/15 13:45:15;;;;;;;;;;;44.90;27.30;;;;;;8429168;28;19912;-69
2021/06/15 13:49:15;;;;;;;;;;;45.70;26.40;;;;;;8428941;28;19948;-70
2021/06/15 13:53:17;;;;;;;;;;;47.00;26.00;;;;;;8430100;28;19957;-70
2021/06/15 13:57:18;;;;;;;;;;;47.80;25.50;;;;;;8442129;28;20327;-69
2021/06/15 14:01:18;;;;;;;;;;;48.70;25.20;;;;;;8435350;28;19920;-67
2021/06/15 14:05:19;;;;;;;;;;;50.50;23.90;;;;;;8431351;28;19909;-68
2021/06/15 14:09:19;;;;;;;;;;;50.00;22.70;;;;;;8439680;28;20441;-68
2021/06/15 14:13:20;;;;;;;;;;;47.70;23.10;;;;;;8462289;28;19908;-69
2021/06/15 14:17:21;;;;;;;;;;;46.10;24.80;;;;;;8460679;28;19919;-68
2021/06/15 14:21:21;;;;;;;;;;;45.70;25.40;;;;;;8461632;28;19916;-69
2021/06/15 14:25:23;;;;;;;;;;;46.80;25.90;;;;;;8433149;28;19920;-68
2021/06/15 14:29:24;;;;;;;;;;;48.40;24.60;;;;;;8428113;28;19953;-69
2021/06/15 14:33:24;;;;;;;;;;;48.80;21.40;;;;;;8428397;28;20397;-69
2021/06/15 14:37:25;;;;;;;;;;;46.80;22.20;;;;;;8430319;28;19916;-68
2021/06/15 14:41:25;;;;;;;;;;;44.80;22.60;;;;;;8429954;28;19916;-68
2021/06/15 14:45:26;;;;;;;;;;;43.50;23.00;;;;;;8433769;28;19912;-67
2021/06/15 14:49:27;;;;;;;5.07;4.60;;;42.10;24.30;;;;;;8442307;28;21030;-68
2021/06/15 14:53:28;;;;;;;;;;;42.00;25.20;;;;;;8436104;28;20327;-67
2021/06/15 14:57:28;;;;;;;;;;;42.80;25.50;;;;;;8441764;28;19911;-67
2021/06/15 15:01:29;;;;;;;;;;;42.70;25.10;;;;;;8443907;28;19908;-67
2021/06/15 15:05:29;;;;;;;;;;;44.20;24.10;;;;;;8440344;28;19953;-66
2021/06/15 15:09:30;;;;;;;;;;;43.40;24.70;;;;;;8437925;28;19935;-66
2021/06/15 15:13:30;;;;;;;;;;;44.10;24.40;;;;;;8444089;28;19908;-66
2021/06/15 15:17:31;;;;;;;;;;;46.40;24.10;;;;;;8430193;28;19907;-66
2021/06/15 15:21:32;;;;;;;;;;;48.10;22.80;;;;;;8458412;28;19908;-68
2021/06/15 15:25:33;;;;;;;;;;;46.90;24.20;;;;;;8432997;28;19915;-67
2021/06/15 15:29:34;;;;;;;;;;;48.30;24.10;;;;;;8439623;28;19919;-68
2021/06/15 15:33:37;;;;;;;;;;;49.00;22.20;;;;;;8434339;28;19908;-67
2021/06/15 15:37:38;;;;;;;;;;;48.50;22.30;;;;;;8445167;28;20361;-68
2021/06/15 15:41:38;;;;;;;;;;;49.00;23.20;;;;;;8429548;28;19908;-68
2021/06/15 15:45:39;;;;;;;;;;;49.80;22.70;;;;;;8428359;28;20469;-68
2021/06/15 15:49:41;;;;;;;;;;;50.10;21.90;;;;;;8439772;28;19919;-69
2021/06/15 15:53:41;;;;;;;;;;;51.20;21.70;;;;;;8412273;28;19913;-70
2021/06/15 15:57:42;;;;;;;;;;;51.90;21.30;;;;;;8412955;28;19912;-70
2021/06/15 16:01:42;;;;;;;;;;;50.30;21.30;;;;;;8433579;28;19951;-68
2021/06/15 16:05:43;;;;;;;;;;;48.30;22.00;;;;;;8435573;28;20301;-69
2021/06/15 16:09:44;;;;;;;;;;;49.40;22.70;;;;;;8448667;28;19911;-68
2021/06/15 16:13:44;;;;;;;;;;;50.20;22.20;;;;;;8456408;28;19908;-68
2021/06/15 16:17:45;;;;;;;;;;;51.00;22.50;;;;;;8447982;28;19943;-68
2021/06/15 16:21:45;;;;;;;;;;;50.50;22.10;;;;;;8443676;28;19929;-68
2021/06/15 16:25:46;;;;;;;;;;;50.80;21.50;;;;;;8430556;28;20374;-68
2021/06/15 16:29:46;;;;;;;;;;;49.00;24.10;;;;;;8440040;28;19912;-69
2021/06/15 16:33:47;;;;;;;;;;;50.00;23.00;;;;;;8430612;28;19911;-69
2021/06/15 16:37:47;;;;;;;;;;;50.40;22.10;;;;;;8430570;28;19911;-69
2021/06/15 16:41:48;;;;;;;;;;;49.50;22.90;;;;;;8431490;28;20002;-69
2021/06/15 16:45:49;;;;;;;;;;;49.20;23.00;;;;;;8430379;28;19911;-69
2021/06/15 16:49:49;;;;;;;;;;;48.80;22.60;;;;;;8450430;28;19911;-69
2021/06/15 16:53:49;;;;;;;;;;;48.70;23.80;;;;;;8450431;28;19904;-68
2021/06/15 16:57:50;;;;;;;;;;;48.40;24.10;;;;;;8431380;28;19908;-68
2021/06/15 17:01:51;;;;;;;;;;;48.10;24.20;;;;;;8431443;28;19949;-69
2021/06/15 17:05:51;;;;;;;;;;;47.80;23.70;;;;;;8431114;28;19915;-69
2021/06/15 17:09:52;;;;;;;;;;;46.70;24.20;;;;;;8440842;28;19976;-68
2021/06/15 17:13:53;;;;;;;;;;;47.00;24.80;;;;;;8463425;28;19918;-68
2021/06/15 17:17:53;;;;;;;;;;;46.70;24.30;;;;;;8460799;28;19923;-68
2021/06/15 17:21:54;;;;;;;;;;;46.00;24.60;;;;;;8446704;28;19939;-69
2021/06/15 17:25:55;;;;;;;10.13;9.43;;;44.00;27.20;;;;;;8422478;28;20402;-67
2021/06/15 17:29:56;;;;;;;;;;;40.70;28.80;;;;;;8407476;28;20020;-65
2021/06/15 17:33:57;;;;;;;79.95;25.45;;;38.20;31.70;;;;;;8418105;28;20454;-69
2021/06/15 17:37:57;;;;;;;;;;;36.10;35.20;;;;;;8392383;28;20021;-69
2021/06/15 17:41:58;;;;;;;;;;;34.70;36.40;;;;;;8398702;28;19977;-69
2021/06/15 17:45:58;;;;;;;;;;;34.50;39.70;;;;;;8386606;28;19912;-68
2021/06/15 17:49:59;;;;;;;;;;;32.80;42.60;;;;;;8400703;28;19912;-67
2021/06/15 17:54:05;;;;;;;;;;;30.80;45.60;;;;;;8394057;28;20429;-67
2021/06/15 17:58:06;;;;;;;;;;;29.80;47.80;;;;;;8408830;28;19958;-68
2021/06/15 18:02:06;;;;;;;;;;;29.30;47.30;;;;;;8394734;28;19908;-68
2021/06/15 18:06:18;;;;;;;;;;;29.00;50.80;;;;;;8410826;28;20374;-66
2021/06/15 18:10:19;;;;;;;;;;;29.30;50.30;;;;;;8421448;28;20031;-66
2021/06/15 18:14:20;;;;;;;;;;;29.00;50.00;;;;;;8433414;28;20380;-67
2021/06/15 18:18:22;;;;;;;;;;;28.90;51.30;;;;;;8435808;28;19943;-67
2021/06/15 18:22:23;;;;;;;;;;;28.40;51.50;;;;;;8450330;28;19908;-66
2021/06/15 18:26:23;;;;;;;;;;;27.90;51.00;;;;;;8443925;28;20536;-65
2021/06/15 18:30:24;;;;;;;;;;;27.30;54.10;;;;;;8460615;28;20317;-68
2021/06/15 18:34:25;;;;;;;;;;;26.20;57.60;;;;;;8446364;28;19908;-68
2021/06/15 18:38:25;;;;;;;;;;;25.60;59.60;;;;;;8427840;28;20500;-67
2021/06/15 18:42:28;;;;;;;;;;;25.40;59.50;;;;;;8431669;28;19974;-67
2021/06/15 18:46:28;;;;;;;;;;;25.00;61.40;;;;;;8430232;28;20400;-68
2021/06/15 18:50:29;;;;;;;;;;;24.80;62.60;;;;;;8421935;28;19908;-67
2021/06/15 18:54:30;;;;;;;;;;;24.60;65.20;;;;;;8441101;22;19919;-69
2021/06/15 18:58:30;;;;;;;;;;;24.50;65.20;;;;;;8412767;28;19912;-69
2021/06/15 19:02:31;;;;;;;;;;;24.50;69.30;;;;;;8415390;28;19912;-69
2021/06/15 19:06:32;;;;;;;;;;;24.40;71.40;;;;;;8401191;28;19972;-68
2021/06/15 19:10:33;;;;;;;;;;;24.00;76.60;;;;;;8405073;28;20003;-68
2021/06/15 19:14:34;;;;;;;;;;;23.70;78.90;;;;;;8383315;28;19946;-69
2021/06/15 19:18:34;;;;;;;;;;;23.40;83.40;;;;;;8375210;28;19912;-69
2021/06/15 19:22:35;;;;;;;;;;;23.10;88.10;;;;;;8379890;28;19909;-69
2021/06/15 19:26:35;;;;;;;;;;;22.80;91.00;;;;;;8375958;28;19920;-68
2021/06/15 19:30:37;;;;;;;;;;;22.60;93.60;;;;;;8380894;28;19912;-68
2021/06/15 19:34:37;;;;;;;;;;;22.50;95.30;;;;;;8372672;28;19970;-68
2021/06/15 19:38:39;;;;;;;;;;;22.30;95.50;;;;;;8372050;28;19952;-69
2021/06/15 19:42:39;;;;;;;;;;;22.00;97.10;;;;;;8368921;28;20529;-69
2021/06/15 19:46:40;;;;;;;;;;;21.50;99.90;;;;;;8359063;28;19909;-69
2021/06/15 19:50:40;;;;;;;;;;;21.40;99.90;;;;;;8356541;28;20349;-69
2021/06/15 19:54:41;;;;;;;;;;;21.00;99.90;;;;;;8378402;28;19920;-69
2021/06/15 19:58:41;;;;;;;;;;;20.90;99.90;;;;;;8387974;28;19916;-68
2021/06/15 20:02:42;;;;;;;;;;;20.70;99.90;;;;;;8388428;28;19930;-68
2021/06/15 20:06:43;;;;;;;;;;;20.50;99.90;;;;;;8388998;28;19911;-68
2021/06/15 20:10:43;;;;;;;;;;;20.50;99.90;;;;;;8388600;28;19915;-69
2021/06/15 20:14:43;;;;;;;;;;;20.30;99.90;;;;;;8389275;28;19915;-69
2021/06/15 20:18:46;;;;;;;;;;;20.00;99.90;;;;;;8389107;28;19923;-68
2021/06/15 20:22:48;;;;;;;;;;;19.70;99.90;;;;;;8389383;28;19916;-69
2021/06/15 20:26:48;;;;;;;;;;;19.50;99.90;;;;;;8387456;28;19908;-68
2021/06/15 20:30:49;;;;;;;;;;;19.50;99.90;;;;;;8388762;28;19991;-68
2021/06/15 20:34:49;;;;;;;;;;;19.60;99.90;;;;;;8387530;28;19908;-69
2021/06/15 20:38:50;;;;;;;;;;;19.20;99.90;;;;;;8387694;28;20442;-68
2021/06/15 20:42:50;;;;;;;;;;;19.10;99.90;;;;;;8388684;28;19958;-68
2021/06/15 20:46:51;;;;;;;;;;;19.00;99.90;;;;;;8411473;28;19909;-69
2021/06/15 20:50:51;;;;;;;;;;;18.90;99.90;;;;;;8388900;28;19909;-68
2021/06/15 20:54:53;;;;;;;;;;;18.90;99.90;;;;;;8388821;28;19912;-68
2021/06/15 20:58:56;;;;;;;;;;;18.80;99.90;;;;;;8388451;28;19919;-69
2021/06/15 21:02:56;;;;;;;;;;;18.60;99.90;;;;;;8381676;28;19908;-68
2021/06/15 21:06:57;;;;;;;;;;;18.30;99.90;;;;;;8359540;28;20385;-65
2021/06/15 21:10:59;;;;;;;;;;;18.30;99.90;;;;;;8374763;28;19939;-65
2021/06/15 21:15:00;;;;;;;;;;;18.20;99.90;;;;;;8378831;28;19915;-65
2021/06/15 21:19:02;;;;;;;;;;;18.40;99.90;;;;;;8378648;28;19908;-65
2021/06/15 21:23:03;;;;;;;;;;;18.40;99.90;;;;;;8384844;28;19935;-65
2021/06/15 21:27:04;;;;;;;;;;;18.20;99.90;;;;;;8395166;28;19904;-65
2021/06/15 21:31:04;;;;;;;;;;;17.90;99.90;;;;;;8377301;28;19975;-65
2021/06/15 21:35:06;;;;;;;;;;;17.60;99.90;;;;;;8384410;28;19957;-65
2021/06/15 21:39:06;;;;;;;;;;;17.70;99.90;;;;;;8396432;28;20354;-65
2021/06/15 21:43:07;;;;;;;;;;;17.50;99.90;;;;;;8396632;28;19958;-65
2021/06/15 21:47:08;;;;;;;;;;;17.40;99.90;;;;;;8395332;28;20393;-65
2021/06/15 21:51:09;;;;;;;;;;;17.20;99.90;;;;;;8393033;28;20378;-65
2021/06/15 21:55:10;;;;;;;;;;;17.20;99.90;;;;;;8394638;28;19995;-65
2021/06/15 21:59:10;;;;;;;;;;;17.20;99.90;;;;;;8395210;28;19949;-65
2021/06/15 22:03:11;;;;;;;;;;;17.10;99.90;;;;;;8395867;28;19904;-65
2021/06/15 22:07:11;;;;;;;;;;;17.00;99.90;;;;;;8395695;28;19910;-65
2021/06/15 22:11:12;;;;;;;;;;;16.90;99.90;;;;;;8395679;28;19944;-65
2021/06/15 22:15:12;;;;;;;;;;;16.90;99.90;;;;;;8395597;28;20298;-65
2021/06/15 22:19:15;;;;;;;;;;;16.80;99.90;;;;;;8395383;28;20546;-65
2021/06/15 22:23:15;;;;;;;;;;;16.70;99.90;;;;;;8393321;28;19949;-65
2021/06/15 22:27:16;;;;;;;;;;;16.70;99.90;;;;;;8393894;28;19908;-65
2021/06/15 22:31:17;;;;;;;;;;;16.70;99.90;;;;;;8394847;28;19995;-65
2021/06/15 22:35:19;;;;;;;;;;;16.40;99.90;;;;;;8394808;28;20030;-65
2021/06/15 22:39:20;;;;;;;;;;;16.40;99.90;;;;;;8394691;28;19948;-65
2021/06/15 22:43:21;;;;;;;;;;;16.20;99.90;;;;;;8393425;28;19910;-65
2021/06/15 22:47:21;;;;;;;;;;;16.20;99.90;;;;;;8393053;28;19905;-65
2021/06/15 22:51:22;;;;;;;;;;;16.20;99.90;;;;;;8394184;28;20290;-65
2021/06/15 22:55:22;;;;;;;;;;;16.00;99.90;;;;;;8394050;28;19951;-65
2021/06/15 22:59:23;;;;;;;;;;;16.30;99.90;;;;;;8393844;28;19908;-65
2021/06/15 23:03:23;;;;;;;;;;;16.10;99.90;;;;;;8393694;28;20284;-65
2021/06/15 23:07:24;;;;;;;;;;;15.80;99.90;;;;;;8393079;28;20374;-65
2021/06/15 23:11:24;;;;;;;;;;;15.60;99.90;;;;;;8393979;28;19904;-65
2021/06/15 23:15:25;;;;;;;;;;;15.70;99.90;;;;;;8393639;28;19950;-65
2021/06/15 23:19:26;;;;;;;;;;;15.70;99.90;;;;;;8393794;28;19909;-65
2021/06/15 23:23:27;;;;;;;;;;;15.80;99.90;;;;;;8391910;28;20519;-65
2021/06/15 23:27:30;;;;;;;;;;;15.80;99.90;;;;;;8391661;28;19915;-65